Griffiss International Airport
KRME : now visible

Airfield :











YOU CAN JOIN US ON...

 
LOGIN :

Register | Disclaimer

   EN    FR    IT 

 









Legend :    VFR   Marginal VFR   IFR   Intensive IFR   Very Intensive IFR
Visi :
Ceiling :
>= 8 km
>= 3000ft
5 to 8 km
1000 to 3000 ft
1500m to 5 km
500 to 1000 ft
800 to 1500m
200 to 500 ft
< 800m
< 200 ft
Symbols :   Thunderstorms  Fog  Heavy snow  Heavy precipitations  Wind > 20 kt






- Airport Elevation : 504 ft


KRME - Griffiss International

CURRENT METAR :
  • 221704Z 10008KT 10SM OVC029 13/09 A2990 RMK AO2 PRESFR T01330094

EXPIRED METARs :
  • 221653Z 11009KT 10SM OVC030 13/09 A2992 RMK AO2 RAE19 SLP131 P0000 T01330089
  • 221553Z 11008KT 10SM -RA BKN031 OVC039 14/08 A2994 RMK AO2 RAB53 SLP138 P0000 T01390078
  • 221453Z 11009KT 10SM OVC034 13/07 A2995 RMK AO2 SLP142 T01330067 58002

TAF KRME
Valid from the 22 at 18:00 until the 23 at 18:00 UTC


221723Z 2218/2318 12009KT P6SM -SHRA OVC025
FM222100 14009KT 3SM -RA OVC015
FM230000 17005KT 5SM -RA OVC006
FM230500 20004KT P6SM BKN015
FM231400 26010G20KT P6SM SCT050



MET'MAP, your aeronautical weather chart ! - Copyright ORBIFLY December 2007 - Disclaimer

ORBIFLY MET'MAP TEAM :

Programming & Development : Alexandra Zaïnal
Concept & Development : Baudouin d'Aumeries
Co-Development & Prog : Marc-Olivier Méhu
Technical & hardware support : Manuel Goepfert

Contact : metmap@orbifly.com




SOURCES & CREDITS :

   NOAA       Earth
Advisory